createdAt,value
2023-08-11T00:01:15.864Z,100307.70
2023-08-11T00:03:45.325Z,100304.05
2023-08-11T00:06:14.399Z,100307.38
2023-08-11T00:08:42.576Z,100306.70
2023-08-11T00:11:12.894Z,100306.45
2023-08-11T00:13:42.207Z,100307.76
2023-08-11T00:16:11.737Z,100306.75
2023-08-11T00:18:41.616Z,100301.56
2023-08-11T00:21:09.740Z,100295.57
2023-08-11T00:23:41.039Z,100293.96
2023-08-11T00:26:09.179Z,100291.82
2023-08-11T00:28:38.004Z,100293.55
2023-08-11T00:31:07.450Z,100293.59
2023-08-11T00:33:35.500Z,100291.71
2023-08-11T00:36:04.775Z,100294.10
2023-08-11T00:38:41.685Z,100286.30
2023-08-11T00:41:10.302Z,100287.37
2023-08-11T00:43:38.508Z,100288.72
2023-08-11T00:46:10.314Z,100288.17
2023-08-11T00:48:39.954Z,100283.70
2023-08-11T00:51:08.229Z,100279.73
2023-08-11T00:53:36.696Z,100279.88
2023-08-11T00:56:05.097Z,100277.16
2023-08-11T00:58:33.309Z,100274.30
2023-08-11T01:01:01.380Z,100274.23
2023-08-11T01:03:30.355Z,100270.91
2023-08-11T01:06:12.812Z,100270.84
2023-08-11T01:08:44.012Z,100264.86
2023-08-11T01:11:35.697Z,100265.48
2023-08-11T01:14:08.166Z,100267.05
2023-08-11T01:16:36.936Z,100268.84
2023-08-11T01:19:05.750Z,100263.98
2023-08-11T01:21:35.612Z,100262.77
2023-08-11T01:24:04.333Z,100263.58
2023-08-11T01:26:32.444Z,100271.58
2023-08-11T01:29:01.422Z,100268.98
2023-08-11T01:31:29.630Z,100260.70
2023-08-11T01:33:57.819Z,100261.17
2023-08-11T01:36:25.933Z,100261.60
2023-08-11T01:38:54.559Z,100255.20
2023-08-11T01:41:22.597Z,100254.63
2023-08-11T01:43:52.372Z,100252.99
2023-08-11T01:46:20.811Z,100250.15
2023-08-11T01:48:48.900Z,100246.36
2023-08-11T01:51:17.141Z,100244.77
2023-08-11T01:53:45.264Z,100243.62
2023-08-11T01:56:13.248Z,100241.95
2023-08-11T01:58:41.286Z,100234.04
2023-08-11T02:01:09.722Z,100234.52
2023-08-11T02:03:42.069Z,100239.59
2023-08-11T02:06:11.091Z,100235.31
2023-08-11T02:08:39.170Z,100231.58
2023-08-11T02:11:07.121Z,100231.84
2023-08-11T02:13:35.082Z,100226.39
2023-08-11T02:16:03.248Z,100224.69
2023-08-11T02:18:32.068Z,100220.02
2023-08-11T02:21:00.090Z,100217.80
2023-08-11T02:23:28.171Z,100217.52
2023-08-11T02:25:56.180Z,100216.67
2023-08-11T02:28:24.130Z,100213.41
2023-08-11T02:30:52.493Z,100216.84
2023-08-11T02:33:21.563Z,100214.36
2023-08-11T02:35:49.498Z,100212.91
2023-08-11T02:38:18.514Z,100209.75
2023-08-11T02:40:46.457Z,100207.69
2023-08-11T02:43:14.358Z,100205.61
2023-08-11T02:45:45.022Z,100204.85
2023-08-11T02:48:12.973Z,100201.83
2023-08-11T02:50:40.960Z,100199.46
2023-08-11T02:53:09.192Z,100200.18
2023-08-11T02:55:37.466Z,100200.83
2023-08-11T02:58:05.419Z,100197.75
2023-08-11T03:00:34.902Z,100192.23
2023-08-11T03:03:03.022Z,100199.51
2023-08-11T03:05:31.405Z,100206.91
2023-08-11T03:07:59.816Z,100204.48
2023-08-11T03:10:28.883Z,100205.00
2023-08-11T03:12:58.374Z,100200.54
2023-08-11T03:15:26.531Z,100197.33
2023-08-11T03:17:56.312Z,100199.86
2023-08-11T03:20:25.840Z,100198.32
2023-08-11T03:22:53.851Z,100202.06
2023-08-11T03:25:23.681Z,100205.34
2023-08-11T03:27:51.886Z,100200.34
2023-08-11T03:30:28.901Z,100203.05
2023-08-11T03:32:57.593Z,100201.20
2023-08-11T03:35:36.314Z,100201.32
2023-08-11T03:38:04.597Z,100199.67
2023-08-11T03:40:33.785Z,100206.75
2023-08-11T03:43:01.812Z,100202.49
2023-08-11T03:45:30.547Z,100197.41
2023-08-11T03:47:58.662Z,100196.56
2023-08-11T03:50:26.777Z,100198.29
2023-08-11T03:52:54.752Z,100195.52
2023-08-11T03:55:24.094Z,100196.84
2023-08-11T03:57:53.252Z,100196.80
2023-08-11T04:00:24.960Z,100206.33
2023-08-11T04:03:03.305Z,100205.95
2023-08-11T04:05:32.027Z,100212.27
2023-08-11T04:07:59.934Z,100215.30
2023-08-11T04:10:28.088Z,100218.89
2023-08-11T04:12:56.314Z,100221.45
2023-08-11T04:15:25.966Z,100223.85
2023-08-11T04:17:54.198Z,100219.42
2023-08-11T04:20:23.762Z,100215.69
2023-08-11T04:22:52.173Z,100217.94
2023-08-11T04:25:20.344Z,100226.89
2023-08-11T04:27:49.151Z,100227.52
2023-08-11T04:30:17.117Z,100236.23
2023-08-11T04:32:47.376Z,100237.53
2023-08-11T04:35:16.333Z,100234.23
2023-08-11T04:37:45.080Z,100236.97
2023-08-11T04:40:15.664Z,100229.25
2023-08-11T04:42:45.807Z,100234.06
2023-08-11T04:45:19.642Z,100238.22
2023-08-11T04:47:47.965Z,100241.12
2023-08-11T04:50:20.396Z,100240.67
2023-08-11T04:52:50.650Z,100244.63
2023-08-11T04:55:19.911Z,100251.25
2023-08-11T04:57:48.910Z,100249.47
2023-08-11T05:00:18.693Z,100248.20
2023-08-11T05:02:47.021Z,100251.92
2023-08-11T05:05:15.426Z,100253.42
2023-08-11T05:07:43.577Z,100250.91
2023-08-11T05:10:11.605Z,100254.77
2023-08-11T05:12:40.177Z,100256.06
2023-08-11T05:15:08.550Z,100253.77
2023-08-11T05:17:36.775Z,100253.52
2023-08-11T05:20:09.560Z,100251.27
2023-08-11T05:22:37.828Z,100249.29
2023-08-11T05:25:06.539Z,100248.88
2023-08-11T05:27:34.478Z,100252.30
2023-08-11T05:30:02.753Z,100251.98
2023-08-11T05:32:31.430Z,100249.56
2023-08-11T05:35:00.623Z,100253.11
2023-08-11T05:37:28.689Z,100250.69
2023-08-11T05:39:56.807Z,100244.81
2023-08-11T05:42:25.423Z,100248.70
2023-08-11T05:44:53.464Z,100247.70
2023-08-11T05:47:21.525Z,100243.87
2023-08-11T05:49:49.786Z,100245.25
2023-08-11T05:52:17.777Z,100243.00
2023-08-11T05:54:45.847Z,100242.88
2023-08-11T05:57:13.859Z,100242.49
2023-08-11T05:59:41.898Z,100245.17
2023-08-11T06:02:10.044Z,100245.27
2023-08-11T06:04:38.116Z,100239.77
2023-08-11T06:07:06.329Z,100231.93
2023-08-11T06:09:34.741Z,100229.08
2023-08-11T06:12:02.721Z,100227.99
2023-08-11T06:14:30.664Z,100227.55
2023-08-11T06:16:58.656Z,100218.46
2023-08-11T06:19:26.872Z,100215.40
2023-08-11T06:21:56.123Z,100221.39
2023-08-11T06:24:24.750Z,100228.16
2023-08-11T06:26:55.781Z,100231.30
2023-08-11T06:29:24.248Z,100226.67
2023-08-11T06:31:52.463Z,100231.70
2023-08-11T06:34:20.985Z,100235.30
2023-08-11T06:36:49.257Z,100234.73
2023-08-11T06:39:17.548Z,100234.63
2023-08-11T06:41:45.635Z,100220.46
2023-08-11T06:44:14.036Z,100221.26
2023-08-11T06:46:42.054Z,100220.84
2023-08-11T06:49:10.038Z,100218.94
2023-08-11T06:51:38.051Z,100213.25
2023-08-11T06:54:06.239Z,100208.86
2023-08-11T06:56:34.573Z,100210.38
2023-08-11T06:59:02.602Z,100205.95
2023-08-11T07:01:30.642Z,100206.48
2023-08-11T07:04:00.942Z,100209.19
2023-08-11T07:06:30.198Z,100212.55
2023-08-11T07:08:58.334Z,100217.68
2023-08-11T07:11:26.449Z,100218.14
2023-08-11T07:13:54.576Z,100221.10
2023-08-11T07:16:22.870Z,100215.19
2023-08-11T07:18:51.028Z,100209.70
2023-08-11T07:21:18.996Z,100210.23
2023-08-11T07:23:47.087Z,100219.59
2023-08-11T07:26:15.579Z,100222.01
2023-08-11T07:28:43.814Z,100218.10
2023-08-11T07:31:11.923Z,100222.20
2023-08-11T07:33:41.625Z,100222.52
2023-08-11T07:36:09.942Z,100225.97
2023-08-11T07:38:37.982Z,100224.33
2023-08-11T07:41:06.023Z,100228.79
2023-08-11T07:43:34.022Z,100235.21
2023-08-11T07:46:02.149Z,100234.11
2023-08-11T07:48:30.164Z,100235.43
2023-08-11T07:50:58.156Z,100235.70
2023-08-11T07:53:26.367Z,100239.71
2023-08-11T07:55:54.461Z,100239.73
2023-08-11T07:58:23.394Z,100240.67
2023-08-11T08:00:51.739Z,100246.33
2023-08-11T08:03:20.141Z,100251.39
2023-08-11T08:05:48.340Z,100252.21
2023-08-11T08:08:17.201Z,100253.36
2023-08-11T08:10:45.280Z,100255.10
2023-08-11T08:13:13.333Z,100258.24
2023-08-11T08:15:41.386Z,100258.05
2023-08-11T08:18:09.429Z,100252.89
2023-08-11T08:20:37.576Z,100244.98
2023-08-11T08:23:05.549Z,100243.64
2023-08-11T08:25:33.598Z,100236.79
2023-08-11T08:28:06.730Z,100231.91
2023-08-11T08:30:35.289Z,100231.61
2023-08-11T08:33:03.667Z,100230.81
2023-08-11T08:35:31.862Z,100232.77
2023-08-11T08:37:59.878Z,100229.47
2023-08-11T08:40:28.385Z,100225.80
2023-08-11T08:42:56.396Z,100223.31
2023-08-11T08:45:24.329Z,100222.26
2023-08-11T08:47:54.441Z,100225.48
2023-08-11T08:50:23.999Z,100227.56
2023-08-11T08:52:52.762Z,100231.96
2023-08-11T08:55:20.814Z,100232.16
2023-08-11T08:57:49.001Z,100231.59
2023-08-11T09:00:20.191Z,100231.43
2023-08-11T09:02:48.566Z,100233.28
2023-08-11T09:05:16.839Z,100233.23
2023-08-11T09:07:45.081Z,100236.40
2023-08-11T09:10:13.253Z,100232.73
2023-08-11T09:12:41.270Z,100230.20
2023-08-11T09:15:11.079Z,100228.98
2023-08-11T09:17:40.477Z,100230.20
2023-08-11T09:20:13.327Z,100230.34
2023-08-11T09:22:42.040Z,100229.77
2023-08-11T09:25:10.097Z,100224.45
2023-08-11T09:27:38.200Z,100220.14
2023-08-11T09:30:07.533Z,100218.05
2023-08-11T09:32:35.638Z,100209.46
2023-08-11T09:35:09.290Z,100213.58
2023-08-11T09:37:38.472Z,100212.93
2023-08-11T09:40:07.884Z,100214.77
2023-08-11T09:42:35.823Z,100218.34
2023-08-11T09:45:04.078Z,100224.24
2023-08-11T09:47:32.128Z,100219.40
2023-08-11T09:50:00.562Z,100217.04
2023-08-11T09:52:28.625Z,100212.97
2023-08-11T09:54:57.095Z,100203.52
2023-08-11T09:57:25.141Z,100198.83
2023-08-11T09:59:55.165Z,100190.08
2023-08-11T10:02:24.468Z,100186.09
2023-08-11T10:05:04.432Z,100181.58
2023-08-11T10:07:38.706Z,100175.67
2023-08-11T10:10:18.286Z,100176.69
2023-08-11T10:12:58.898Z,100178.63
2023-08-11T10:15:26.971Z,100171.39
2023-08-11T10:17:55.714Z,100168.38
2023-08-11T10:20:23.835Z,100169.11
2023-08-11T10:22:51.875Z,100163.80
2023-08-11T10:25:19.977Z,100164.43
2023-08-11T10:27:47.963Z,100165.73
2023-08-11T10:30:16.835Z,100167.48
2023-08-11T10:32:45.085Z,100161.84
2023-08-11T10:35:28.157Z,100157.38
2023-08-11T10:38:00.293Z,100161.41
2023-08-11T10:40:35.618Z,100171.22
2023-08-11T10:43:06.112Z,100174.38
2023-08-11T10:45:34.779Z,100171.99
2023-08-11T10:48:10.134Z,100172.30
2023-08-11T10:50:39.397Z,100169.80
2023-08-11T10:53:09.657Z,100173.76
2023-08-11T10:55:37.822Z,100175.77
2023-08-11T10:58:16.346Z,100179.75
2023-08-11T11:00:44.512Z,100178.09
2023-08-11T11:03:15.189Z,100177.44
2023-08-11T11:05:45.949Z,100174.14
2023-08-11T11:08:14.143Z,100170.92
2023-08-11T11:10:49.808Z,100167.73
2023-08-11T11:13:18.969Z,100161.02
2023-08-11T11:15:47.757Z,100157.09
2023-08-11T11:18:15.918Z,100153.81
2023-08-11T11:20:44.032Z,100152.74
2023-08-11T11:23:12.110Z,100157.58
2023-08-11T11:25:40.285Z,100157.42
2023-08-11T11:28:08.213Z,100151.57
2023-08-11T11:30:36.309Z,100152.00
2023-08-11T11:33:05.127Z,100156.05
2023-08-11T11:35:33.639Z,100155.85
2023-08-11T11:38:01.740Z,100155.05
2023-08-11T11:40:31.565Z,100151.70
2023-08-11T11:42:59.529Z,100150.90
2023-08-11T11:45:28.113Z,100146.05
2023-08-11T11:47:56.556Z,100147.15
2023-08-11T11:50:24.949Z,100148.98
2023-08-11T11:52:55.052Z,100148.69
2023-08-11T11:55:23.174Z,100150.98
2023-08-11T11:57:51.228Z,100149.36
2023-08-11T12:00:20.551Z,100154.48
2023-08-11T12:02:49.045Z,100153.52
2023-08-11T12:05:17.304Z,100155.65
2023-08-11T12:07:45.701Z,100157.30
2023-08-11T12:10:15.882Z,100159.59
2023-08-11T12:12:44.006Z,100154.11
2023-08-11T12:15:12.510Z,100158.58
2023-08-11T12:17:40.607Z,100157.88
2023-08-11T12:20:11.813Z,100154.48
2023-08-11T12:22:39.915Z,100149.66
2023-08-11T12:25:09.367Z,100146.17
2023-08-11T12:27:37.895Z,100147.38
2023-08-11T12:30:08.529Z,100147.36
2023-08-11T12:32:37.186Z,100151.83
2023-08-11T12:35:05.646Z,100150.18
2023-08-11T12:37:33.745Z,100144.73
2023-08-11T12:40:01.908Z,100140.23
2023-08-11T12:42:30.032Z,100140.39
2023-08-11T12:44:58.552Z,100141.62
2023-08-11T12:47:26.636Z,100137.96
2023-08-11T12:49:54.772Z,100136.59
2023-08-11T12:52:22.847Z,100128.09
2023-08-11T12:54:50.817Z,100124.61
2023-08-11T12:57:18.911Z,100122.30
2023-08-11T12:59:47.013Z,100117.34
2023-08-11T13:02:15.040Z,100120.14
2023-08-11T13:04:43.096Z,100115.98
2023-08-11T13:07:11.180Z,100117.64
2023-08-11T13:09:39.230Z,100114.17
2023-08-11T13:12:13.745Z,100116.32
2023-08-11T13:14:41.955Z,100117.58
2023-08-11T13:17:12.128Z,100119.11
2023-08-11T13:19:40.742Z,100118.78
2023-08-11T13:22:09.648Z,100115.97
2023-08-11T13:24:38.366Z,100118.03
2023-08-11T13:27:06.599Z,100118.90
2023-08-11T13:29:34.684Z,100124.50
2023-08-11T13:32:02.792Z,100130.81
2023-08-11T13:34:30.877Z,100136.92
2023-08-11T13:36:59.203Z,100138.75
2023-08-11T13:39:30.411Z,100139.38
2023-08-11T13:41:58.476Z,100141.02
2023-08-11T13:44:26.572Z,100141.21
2023-08-11T13:46:54.536Z,100143.46
2023-08-11T13:49:22.657Z,100148.64
2023-08-11T13:51:50.692Z,100155.11
2023-08-11T13:54:18.670Z,100161.35
2023-08-11T13:56:46.629Z,100164.52
2023-08-11T13:59:14.695Z,100165.32
2023-08-11T14:01:42.664Z,100170.28
2023-08-11T14:04:10.754Z,100165.89
2023-08-11T14:06:39.198Z,100167.73
2023-08-11T14:09:07.226Z,100166.08
2023-08-11T14:11:35.312Z,100165.31
2023-08-11T14:14:03.317Z,100165.83
2023-08-11T14:16:31.736Z,100173.31
2023-08-11T14:18:59.824Z,100173.25
2023-08-11T14:21:28.044Z,100176.02
2023-08-11T14:23:56.283Z,100173.63
2023-08-11T14:26:24.332Z,100171.54
2023-08-11T14:28:52.403Z,100173.98
2023-08-11T14:31:20.502Z,100169.09
2023-08-11T14:33:48.781Z,100164.95
2023-08-11T14:36:16.804Z,100162.11
2023-08-11T14:38:44.763Z,100165.31
2023-08-11T14:41:12.798Z,100163.87
2023-08-11T14:43:41.113Z,100167.64
2023-08-11T14:46:09.297Z,100172.81
2023-08-11T14:48:37.397Z,100175.54
2023-08-11T14:51:07.363Z,100177.75
2023-08-11T14:53:35.522Z,100177.33
2023-08-11T14:56:03.663Z,100175.50
2023-08-11T14:58:32.191Z,100177.08
2023-08-11T15:01:00.247Z,100179.24
2023-08-11T15:03:28.714Z,100172.08
2023-08-11T15:05:56.977Z,100171.93
2023-08-11T15:08:25.719Z,100167.27
2023-08-11T15:10:53.783Z,100171.85
2023-08-11T15:13:21.788Z,100172.41
2023-08-11T15:15:49.727Z,100164.44
2023-08-11T15:18:17.816Z,100161.70
2023-08-11T15:20:46.006Z,100157.79
2023-08-11T15:23:14.102Z,100160.10
2023-08-11T15:25:43.773Z,100158.75
2023-08-11T15:28:12.274Z,100157.38
2023-08-11T15:30:40.192Z,100156.27
2023-08-11T15:33:08.446Z,100155.05
2023-08-11T15:35:38.828Z,100150.06
2023-08-11T15:38:07.605Z,100141.96
2023-08-11T15:40:35.800Z,100142.88
2023-08-11T15:43:04.096Z,100145.98
2023-08-11T15:45:32.206Z,100147.30
2023-08-11T15:48:00.476Z,100146.39
2023-08-11T15:50:28.667Z,100154.34
2023-08-11T15:52:56.619Z,100156.05
2023-08-11T15:55:35.802Z,100153.49
2023-08-11T15:58:04.794Z,100149.80
2023-08-11T16:00:33.280Z,100147.15
2023-08-11T16:03:01.709Z,100150.94
2023-08-11T16:05:30.052Z,100153.10
2023-08-11T16:07:58.205Z,100146.58
2023-08-11T16:10:28.034Z,100142.74
2023-08-11T16:12:56.036Z,100140.85
2023-08-11T16:15:24.097Z,100140.40
2023-08-11T16:17:53.820Z,100136.90
2023-08-11T16:20:25.475Z,100137.27
2023-08-11T16:22:53.670Z,100135.22
2023-08-11T16:25:22.173Z,100135.10
2023-08-11T16:27:50.195Z,100136.97
2023-08-11T16:30:18.338Z,100143.61
2023-08-11T16:32:46.426Z,100145.30
2023-08-11T16:35:14.526Z,100144.79
2023-08-11T16:37:42.447Z,100149.54
2023-08-11T16:40:11.918Z,100155.13
2023-08-11T16:42:40.025Z,100152.95
2023-08-11T16:45:08.704Z,100152.02
2023-08-11T16:47:37.113Z,100158.65
2023-08-11T16:50:05.799Z,100166.77
2023-08-11T16:52:34.041Z,100172.48
2023-08-11T16:55:02.393Z,100176.96
2023-08-11T16:57:30.828Z,100180.20
2023-08-11T16:59:59.124Z,100185.83
2023-08-11T17:02:27.584Z,100186.90
2023-08-11T17:04:55.855Z,100191.44
2023-08-11T17:07:23.983Z,100187.70
2023-08-11T17:09:52.117Z,100186.52
2023-08-11T17:12:20.389Z,100182.13
2023-08-11T17:14:48.501Z,100176.27
2023-08-11T17:17:16.736Z,100167.45
2023-08-11T17:19:44.940Z,100167.47
2023-08-11T17:22:13.598Z,100168.50
2023-08-11T17:24:42.128Z,100172.96
2023-08-11T17:27:10.352Z,100170.40
2023-08-11T17:29:38.818Z,100166.88
2023-08-11T17:32:07.557Z,100157.98
2023-08-11T17:34:40.273Z,100164.09
2023-08-11T17:37:15.261Z,100175.27
2023-08-11T17:39:43.529Z,100175.27
2023-08-11T17:42:11.950Z,100178.86
2023-08-11T17:44:40.522Z,100175.04
2023-08-11T17:47:09.147Z,100178.07
2023-08-11T17:49:37.450Z,100171.94
2023-08-11T17:52:05.993Z,100177.83
2023-08-11T17:54:34.106Z,100180.70
2023-08-11T17:57:02.241Z,100180.36
2023-08-11T17:59:30.448Z,100183.52
2023-08-11T18:01:58.766Z,100182.85
2023-08-11T18:04:26.904Z,100181.02
2023-08-11T18:06:55.503Z,100185.69
2023-08-11T18:09:23.687Z,100179.77
2023-08-11T18:11:51.879Z,100176.51
2023-08-11T18:14:19.982Z,100175.50
2023-08-11T18:16:48.107Z,100174.52
2023-08-11T18:19:16.200Z,100173.25
2023-08-11T18:21:44.521Z,100171.64
2023-08-11T18:24:12.785Z,100169.10
2023-08-11T18:26:40.834Z,100167.89
2023-08-11T18:29:09.809Z,100165.90
2023-08-11T18:31:38.250Z,100160.69
2023-08-11T18:34:06.748Z,100160.55
2023-08-11T18:36:34.930Z,100164.50
2023-08-11T18:39:03.290Z,100164.03
2023-08-11T18:41:31.473Z,100165.45
2023-08-11T18:44:00.164Z,100168.56
2023-08-11T18:46:28.593Z,100168.95
2023-08-11T18:48:56.692Z,100164.90
2023-08-11T18:51:25.162Z,100163.15
2023-08-11T18:53:53.250Z,100164.15
2023-08-11T18:56:21.351Z,100164.21
2023-08-11T18:58:52.272Z,100167.70
2023-08-11T19:01:20.465Z,100168.30
2023-08-11T19:03:48.994Z,100170.58
2023-08-11T19:06:17.451Z,100169.09
2023-08-11T19:08:45.745Z,100165.80
2023-08-11T19:11:14.958Z,100163.05
2023-08-11T19:13:45.626Z,100158.83
2023-08-11T19:16:15.418Z,100154.64
2023-08-11T19:18:43.944Z,100152.73
2023-08-11T19:21:12.154Z,100151.73
2023-08-11T19:23:40.307Z,100150.70
2023-08-11T19:26:08.399Z,100151.55
2023-08-11T19:28:36.667Z,100155.25
2023-08-11T19:31:05.407Z,100153.17
2023-08-11T19:33:33.624Z,100155.21
2023-08-11T19:36:01.821Z,100159.96
2023-08-11T19:38:29.995Z,100161.55
2023-08-11T19:40:58.384Z,100159.14
2023-08-11T19:43:26.780Z,100156.55
2023-08-11T19:45:54.930Z,100159.86
2023-08-11T19:48:23.174Z,100159.37
2023-08-11T19:50:51.648Z,100154.36
2023-08-11T19:53:20.069Z,100155.67
2023-08-11T19:55:48.297Z,100152.83
2023-08-11T19:58:17.013Z,100157.52
2023-08-11T20:00:45.218Z,100154.00
2023-08-11T20:03:13.463Z,100151.42
2023-08-11T20:05:48.304Z,100151.14
2023-08-11T20:08:16.842Z,100152.19
2023-08-11T20:10:49.375Z,100152.02
2023-08-11T20:13:20.644Z,100153.85
2023-08-11T20:15:48.881Z,100153.90
2023-08-11T20:18:17.229Z,100151.15
2023-08-11T20:20:45.913Z,100156.38
2023-08-11T20:23:14.118Z,100159.09
2023-08-11T20:25:42.350Z,100154.56
2023-08-11T20:28:10.616Z,100159.30
2023-08-11T20:30:42.404Z,100160.79
2023-08-11T20:33:10.653Z,100161.89
2023-08-11T20:35:38.884Z,100158.48
2023-08-11T20:38:07.113Z,100162.61
2023-08-11T20:40:35.287Z,100162.88
2023-08-11T20:43:05.249Z,100159.19
2023-08-11T20:45:33.299Z,100162.17
2023-08-11T20:48:01.733Z,100159.19
2023-08-11T20:50:30.016Z,100162.94
2023-08-11T20:52:57.970Z,100159.80
2023-08-11T20:55:25.904Z,100156.20
2023-08-11T20:57:53.947Z,100155.45
2023-08-11T21:00:22.165Z,100154.18
2023-08-11T21:02:50.275Z,100150.06
2023-08-11T21:05:18.440Z,100155.78
2023-08-11T21:07:46.499Z,100163.42
2023-08-11T21:10:16.237Z,100162.20
2023-08-11T21:12:44.632Z,100161.49
2023-08-11T21:15:13.862Z,100161.39
2023-08-11T21:17:41.976Z,100160.23
2023-08-11T21:20:10.497Z,100160.16
2023-08-11T21:22:38.561Z,100154.71
2023-08-11T21:25:06.643Z,100153.81
2023-08-11T21:27:34.741Z,100151.98
2023-08-11T21:30:02.770Z,100147.75
2023-08-11T21:32:30.823Z,100143.45
2023-08-11T21:34:58.987Z,100140.20
2023-08-11T21:37:27.057Z,100136.52
2023-08-11T21:39:55.089Z,100131.95
2023-08-11T21:42:23.240Z,100129.70
2023-08-11T21:44:51.228Z,100127.89
2023-08-11T21:47:19.229Z,100125.02
2023-08-11T21:49:47.385Z,100122.21
2023-08-11T21:52:15.488Z,100124.13
2023-08-11T21:54:43.477Z,100119.79
2023-08-11T21:57:14.241Z,100119.02
2023-08-11T21:59:42.622Z,100114.61
2023-08-11T22:02:10.778Z,100109.94
2023-08-11T22:04:41.457Z,100110.00
2023-08-11T22:07:10.046Z,100107.80
2023-08-11T22:09:38.457Z,100106.87
2023-08-11T22:12:06.891Z,100106.05
2023-08-11T22:14:35.274Z,100105.16
2023-08-11T22:17:03.283Z,100102.67
2023-08-11T22:19:31.598Z,100098.51
2023-08-11T22:21:59.608Z,100097.69
2023-08-11T22:24:40.328Z,100097.34
2023-08-11T22:27:12.807Z,100099.77
2023-08-11T22:29:41.368Z,100099.89
2023-08-11T22:32:10.759Z,100101.36
2023-08-11T22:34:38.936Z,100101.52
2023-08-11T22:37:06.993Z,100099.31
2023-08-11T22:39:34.981Z,100102.45
2023-08-11T22:42:03.163Z,100100.96
2023-08-11T22:44:31.281Z,100101.17
2023-08-11T22:46:59.261Z,100101.51
2023-08-11T22:49:27.492Z,100103.91
2023-08-11T22:51:55.512Z,100104.52
2023-08-11T22:54:23.883Z,100102.15
2023-08-11T22:56:52.235Z,100105.44
2023-08-11T22:59:21.217Z,100107.08
2023-08-11T23:01:49.375Z,100106.80
2023-08-11T23:04:17.609Z,100104.98
2023-08-11T23:06:45.947Z,100095.02
2023-08-11T23:09:13.959Z,100098.86
2023-08-11T23:11:42.078Z,100104.90
2023-08-11T23:14:10.060Z,100101.27
2023-08-11T23:16:38.165Z,100100.11
2023-08-11T23:19:07.132Z,100102.14
2023-08-11T23:21:35.280Z,100109.75
2023-08-11T23:24:03.395Z,100114.86
2023-08-11T23:26:31.511Z,100109.13
2023-08-11T23:28:59.642Z,100106.57
2023-08-11T23:31:27.742Z,100111.05
2023-08-11T23:33:55.962Z,100113.34
2023-08-11T23:36:23.986Z,100119.09
2023-08-11T23:38:52.299Z,100114.02
2023-08-11T23:41:20.531Z,100118.30
2023-08-11T23:43:48.694Z,100116.63
2023-08-11T23:46:16.855Z,100122.77
2023-08-11T23:48:45.133Z,100120.16
2023-08-11T23:51:13.214Z,100121.69
2023-08-11T23:53:41.454Z,100123.32
2023-08-11T23:56:09.777Z,100126.29
2023-08-11T23:58:37.848Z,100121.55
